sensor_id;sensor_type;location;lat;lon;timestamp;temperature;humidity
2226;DHT22;1119;48.288;8.726;2023-04-25T00:01:58;8.00;98.50
2226;DHT22;1119;48.288;8.726;2023-04-25T00:04:45;8.00;98.90
2226;DHT22;1119;48.288;8.726;2023-04-25T00:07:34;7.90;99.50
2226;DHT22;1119;48.288;8.726;2023-04-25T00:10:22;7.90;99.90
2226;DHT22;1119;48.288;8.726;2023-04-25T00:13:10;7.80;99.90
2226;DHT22;1119;48.288;8.726;2023-04-25T00:15:59;7.80;99.90
2226;DHT22;1119;48.288;8.726;2023-04-25T00:18:46;7.80;99.90
2226;DHT22;1119;48.288;8.726;2023-04-25T00:21:37;7.80;99.90
2226;DHT22;1119;48.288;8.726;2023-04-25T00:24:26;7.80;99.90
2226;DHT22;1119;48.288;8.726;2023-04-25T00:27:14;7.80;99.90
2226;DHT22;1119;48.288;8.726;2023-04-25T00:30:02;7.60;99.90
2226;DHT22;1119;48.288;8.726;2023-04-25T00:32:51;7.90;99.90
2226;DHT22;1119;48.288;8.726;2023-04-25T00:35:39;8.00;99.90
2226;DHT22;1119;48.288;8.726;2023-04-25T00:38:27;8.00;99.90
2226;DHT22;1119;48.288;8.726;2023-04-25T00:41:15;8.10;99.90
2226;DHT22;1119;48.288;8.726;2023-04-25T00:44:04;8.20;99.90
2226;DHT22;1119;48.288;8.726;2023-04-25T00:46:53;8.30;99.90
2226;DHT22;1119;48.288;8.726;2023-04-25T00:49:43;8.20;99.90
2226;DHT22;1119;48.288;8.726;2023-04-25T00:52:32;8.10;99.90
2226;DHT22;1119;48.288;8.726;2023-04-25T00:55:20;8.10;99.90
2226;DHT22;1119;48.288;8.726;2023-04-25T00:58:07;8.10;99.90
2226;DHT22;1119;48.288;8.726;2023-04-25T01:00:56;8.00;99.80
2226;DHT22;1119;48.288;8.726;2023-04-25T01:03:46;8.00;99.90
2226;DHT22;1119;48.288;8.726;2023-04-25T01:06:37;8.00;99.90
2226;DHT22;1119;48.288;8.726;2023-04-25T01:09:25;8.00;99.90
2226;DHT22;1119;48.288;8.726;2023-04-25T01:12:13;8.00;99.90
2226;DHT22;1119;48.288;8.726;2023-04-25T01:15:01;7.80;99.90
2226;DHT22;1119;48.288;8.726;2023-04-25T01:17:50;7.60;99.90
2226;DHT22;1119;48.288;8.726;2023-04-25T01:20:39;7.50;99.90
2226;DHT22;1119;48.288;8.726;2023-04-25T01:23:31;7.60;99.90
2226;DHT22;1119;48.288;8.726;2023-04-25T01:26:19;7.60;99.90
2226;DHT22;1119;48.288;8.726;2023-04-25T01:29:09;7.50;99.90
2226;DHT22;1119;48.288;8.726;2023-04-25T01:31:56;7.40;99.90
2226;DHT22;1119;48.288;8.726;2023-04-25T01:34:45;7.30;99.90
2226;DHT22;1119;48.288;8.726;2023-04-25T01:37:33;7.30;99.90
2226;DHT22;1119;48.288;8.726;2023-04-25T01:40:22;7.30;99.90
2226;DHT22;1119;48.288;8.726;2023-04-25T01:43:11;7.20;99.90
2226;DHT22;1119;48.288;8.726;2023-04-25T01:46:00;7.20;99.90
2226;DHT22;1119;48.288;8.726;2023-04-25T01:48:48;7.30;99.90
2226;DHT22;1119;48.288;8.726;2023-04-25T01:51:35;7.30;99.90
2226;DHT22;1119;48.288;8.726;2023-04-25T01:54:23;7.40;99.90
2226;DHT22;1119;48.288;8.726;2023-04-25T01:57:13;7.40;99.90
2226;DHT22;1119;48.288;8.726;2023-04-25T02:00:06;7.40;99.90
2226;DHT22;1119;48.288;8.726;2023-04-25T02:03:01;7.40;99.90
2226;DHT22;1119;48.288;8.726;2023-04-25T02:05:53;7.30;99.90
2226;DHT22;1119;48.288;8.726;2023-04-25T02:08:42;7.30;99.90
2226;DHT22;1119;48.288;8.726;2023-04-25T02:11:33;7.20;99.90
2226;DHT22;1119;48.288;8.726;2023-04-25T02:14:42;7.10;99.90
2226;DHT22;1119;48.288;8.726;2023-04-25T02:17:42;7.00;99.90
2226;DHT22;1119;48.288;8.726;2023-04-25T02:20:32;7.00;99.90
2226;DHT22;1119;48.288;8.726;2023-04-25T02:23:21;6.90;99.90
2226;DHT22;1119;48.288;8.726;2023-04-25T02:26:09;6.90;99.90
2226;DHT22;1119;48.288;8.726;2023-04-25T02:28:57;6.80;99.90
2226;DHT22;1119;48.288;8.726;2023-04-25T02:31:46;6.80;99.90
2226;DHT22;1119;48.288;8.726;2023-04-25T02:34:34;6.80;99.90
2226;DHT22;1119;48.288;8.726;2023-04-25T02:37:21;6.70;99.90
2226;DHT22;1119;48.288;8.726;2023-04-25T02:40:09;6.70;99.90
2226;DHT22;1119;48.288;8.726;2023-04-25T02:42:57;6.70;99.90
2226;DHT22;1119;48.288;8.726;2023-04-25T02:45:46;6.70;99.90
2226;DHT22;1119;48.288;8.726;2023-04-25T02:48:35;6.70;99.90
2226;DHT22;1119;48.288;8.726;2023-04-25T02:51:22;6.70;99.90
2226;DHT22;1119;48.288;8.726;2023-04-25T02:54:10;6.60;99.90
2226;DHT22;1119;48.288;8.726;2023-04-25T02:57:02;6.60;99.90
2226;DHT22;1119;48.288;8.726;2023-04-25T02:59:55;6.60;99.90
2226;DHT22;1119;48.288;8.726;2023-04-25T03:02:43;6.70;99.90
2226;DHT22;1119;48.288;8.726;2023-04-25T03:05:32;6.80;99.90
2226;DHT22;1119;48.288;8.726;2023-04-25T03:08:19;6.70;99.90
2226;DHT22;1119;48.288;8.726;2023-04-25T03:11:07;6.70;99.90
2226;DHT22;1119;48.288;8.726;2023-04-25T03:13:55;6.70;99.90
2226;DHT22;1119;48.288;8.726;2023-04-25T03:16:43;6.70;99.90
2226;DHT22;1119;48.288;8.726;2023-04-25T03:19:31;6.70;99.90
2226;DHT22;1119;48.288;8.726;2023-04-25T03:22:20;6.70;99.90
2226;DHT22;1119;48.288;8.726;2023-04-25T03:25:08;6.60;99.90
2226;DHT22;1119;48.288;8.726;2023-04-25T03:27:55;6.50;99.90
2226;DHT22;1119;48.288;8.726;2023-04-25T03:30:43;6.50;99.90
2226;DHT22;1119;48.288;8.726;2023-04-25T03:33:31;6.50;99.90
2226;DHT22;1119;48.288;8.726;2023-04-25T03:36:18;6.50;99.90
2226;DHT22;1119;48.288;8.726;2023-04-25T03:39:07;6.50;99.90
2226;DHT22;1119;48.288;8.726;2023-04-25T03:41:56;6.50;99.90
2226;DHT22;1119;48.288;8.726;2023-04-25T03:44:44;6.50;99.90
2226;DHT22;1119;48.288;8.726;2023-04-25T03:47:33;6.40;99.90
2226;DHT22;1119;48.288;8.726;2023-04-25T03:50:21;6.30;99.90
2226;DHT22;1119;48.288;8.726;2023-04-25T03:53:09;6.30;99.90
2226;DHT22;1119;48.288;8.726;2023-04-25T03:56:18;6.30;99.90
2226;DHT22;1119;48.288;8.726;2023-04-25T03:59:07;6.30;99.90
2226;DHT22;1119;48.288;8.726;2023-04-25T04:01:56;6.30;99.90
2226;DHT22;1119;48.288;8.726;2023-04-25T04:04:44;6.20;99.90
2226;DHT22;1119;48.288;8.726;2023-04-25T04:07:33;6.10;99.90
2226;DHT22;1119;48.288;8.726;2023-04-25T04:10:26;6.10;99.90
2226;DHT22;1119;48.288;8.726;2023-04-25T04:13:16;6.10;99.90
2226;DHT22;1119;48.288;8.726;2023-04-25T04:16:05;6.10;99.90
2226;DHT22;1119;48.288;8.726;2023-04-25T04:18:53;6.00;99.90
2226;DHT22;1119;48.288;8.726;2023-04-25T04:21:40;6.00;99.90
2226;DHT22;1119;48.288;8.726;2023-04-25T04:24:29;6.00;99.90
2226;DHT22;1119;48.288;8.726;2023-04-25T04:27:22;6.00;99.90
2226;DHT22;1119;48.288;8.726;2023-04-25T04:30:23;6.00;99.90
2226;DHT22;1119;48.288;8.726;2023-04-25T04:33:16;6.00;99.90
2226;DHT22;1119;48.288;8.726;2023-04-25T04:36:08;6.00;99.90
2226;DHT22;1119;48.288;8.726;2023-04-25T04:38:55;6.00;99.90
2226;DHT22;1119;48.288;8.726;2023-04-25T04:41:54;6.00;99.90
2226;DHT22;1119;48.288;8.726;2023-04-25T04:45:11;6.00;99.90
2226;DHT22;1119;48.288;8.726;2023-04-25T04:48:10;6.00;99.90
2226;DHT22;1119;48.288;8.726;2023-04-25T04:51:23;6.10;99.90
2226;DHT22;1119;48.288;8.726;2023-04-25T04:54:13;6.30;99.90
2226;DHT22;1119;48.288;8.726;2023-04-25T04:57:13;6.50;99.90
2226;DHT22;1119;48.288;8.726;2023-04-25T05:00:21;6.60;99.90
2226;DHT22;1119;48.288;8.726;2023-04-25T05:03:35;6.70;99.90
2226;DHT22;1119;48.288;8.726;2023-04-25T05:06:32;6.80;99.90
2226;DHT22;1119;48.288;8.726;2023-04-25T05:09:39;6.80;99.90
2226;DHT22;1119;48.288;8.726;2023-04-25T05:12:40;6.70;99.90
2226;DHT22;1119;48.288;8.726;2023-04-25T05:15:48;6.70;99.90
2226;DHT22;1119;48.288;8.726;2023-04-25T05:18:44;6.70;99.90
2226;DHT22;1119;48.288;8.726;2023-04-25T05:22:03;6.70;99.90
2226;DHT22;1119;48.288;8.726;2023-04-25T05:24:57;6.70;99.90
2226;DHT22;1119;48.288;8.726;2023-04-25T05:28:12;6.70;99.90
2226;DHT22;1119;48.288;8.726;2023-04-25T05:31:00;6.90;99.90
2226;DHT22;1119;48.288;8.726;2023-04-25T05:33:52;6.90;99.90
2226;DHT22;1119;48.288;8.726;2023-04-25T05:36:41;6.90;99.90
2226;DHT22;1119;48.288;8.726;2023-04-25T05:39:29;7.00;99.90
2226;DHT22;1119;48.288;8.726;2023-04-25T05:42:31;7.10;99.90
2226;DHT22;1119;48.288;8.726;2023-04-25T05:45:42;7.10;99.90
2226;DHT22;1119;48.288;8.726;2023-04-25T05:49:01;7.10;99.90
2226;DHT22;1119;48.288;8.726;2023-04-25T05:52:08;7.10;99.90
2226;DHT22;1119;48.288;8.726;2023-04-25T05:55:09;7.10;99.90
2226;DHT22;1119;48.288;8.726;2023-04-25T05:57:57;7.10;99.90
2226;DHT22;1119;48.288;8.726;2023-04-25T06:00:46;7.20;99.90
2226;DHT22;1119;48.288;8.726;2023-04-25T06:03:34;7.20;99.90
2226;DHT22;1119;48.288;8.726;2023-04-25T06:07:04;7.30;99.90
2226;DHT22;1119;48.288;8.726;2023-04-25T06:09:52;7.30;99.90
2226;DHT22;1119;48.288;8.726;2023-04-25T06:16:49;7.30;99.90
2226;DHT22;1119;48.288;8.726;2023-04-25T06:19:37;7.40;99.90
2226;DHT22;1119;48.288;8.726;2023-04-25T06:22:26;7.50;99.90
2226;DHT22;1119;48.288;8.726;2023-04-25T06:28:09;7.70;99.90
2226;DHT22;1119;48.288;8.726;2023-04-25T06:30:57;7.70;99.90
2226;DHT22;1119;48.288;8.726;2023-04-25T06:33:44;7.70;99.90
2226;DHT22;1119;48.288;8.726;2023-04-25T06:36:33;7.70;99.90
2226;DHT22;1119;48.288;8.726;2023-04-25T06:39:27;7.70;99.90
2226;DHT22;1119;48.288;8.726;2023-04-25T06:42:15;7.80;99.90
2226;DHT22;1119;48.288;8.726;2023-04-25T06:45:12;7.80;99.90
2226;DHT22;1119;48.288;8.726;2023-04-25T06:48:01;7.80;99.90
2226;DHT22;1119;48.288;8.726;2023-04-25T06:50:49;7.80;99.90
2226;DHT22;1119;48.288;8.726;2023-04-25T06:53:38;7.70;99.90
2226;DHT22;1119;48.288;8.726;2023-04-25T06:56:29;7.70;99.90
2226;DHT22;1119;48.288;8.726;2023-04-25T06:59:31;7.70;99.90
2226;DHT22;1119;48.288;8.726;2023-04-25T07:02:19;7.70;99.90
2226;DHT22;1119;48.288;8.726;2023-04-25T07:05:09;7.70;99.90
2226;DHT22;1119;48.288;8.726;2023-04-25T07:07:57;7.70;99.90
2226;DHT22;1119;48.288;8.726;2023-04-25T07:10:46;7.80;99.90
2226;DHT22;1119;48.288;8.726;2023-04-25T07:13:35;7.80;99.90
2226;DHT22;1119;48.288;8.726;2023-04-25T07:16:22;7.90;99.90
2226;DHT22;1119;48.288;8.726;2023-04-25T07:19:11;8.00;99.90
2226;DHT22;1119;48.288;8.726;2023-04-25T07:21:59;8.10;99.90
2226;DHT22;1119;48.288;8.726;2023-04-25T07:24:47;8.20;99.90
2226;DHT22;1119;48.288;8.726;2023-04-25T07:27:37;8.20;99.90
2226;DHT22;1119;48.288;8.726;2023-04-25T07:30:34;8.20;99.90
2226;DHT22;1119;48.288;8.726;2023-04-25T07:33:24;8.30;99.90
2226;DHT22;1119;48.288;8.726;2023-04-25T07:36:11;8.20;99.90
2226;DHT22;1119;48.288;8.726;2023-04-25T07:39:01;8.10;99.90
2226;DHT22;1119;48.288;8.726;2023-04-25T07:41:49;8.10;99.90
2226;DHT22;1119;48.288;8.726;2023-04-25T07:44:43;8.00;99.90
2226;DHT22;1119;48.288;8.726;2023-04-25T07:47:34;7.90;99.90
2226;DHT22;1119;48.288;8.726;2023-04-25T07:50:22;7.80;99.90
2226;DHT22;1119;48.288;8.726;2023-04-25T07:53:10;7.70;99.90
2226;DHT22;1119;48.288;8.726;2023-04-25T07:56:06;7.60;99.90
2226;DHT22;1119;48.288;8.726;2023-04-25T07:58:57;7.50;99.90
2226;DHT22;1119;48.288;8.726;2023-04-25T08:01:45;7.30;99.90
2226;DHT22;1119;48.288;8.726;2023-04-25T08:04:35;7.10;99.90
2226;DHT22;1119;48.288;8.726;2023-04-25T08:07:25;6.90;99.90
2226;DHT22;1119;48.288;8.726;2023-04-25T08:10:15;6.60;99.90
2226;DHT22;1119;48.288;8.726;2023-04-25T08:13:03;6.40;99.90
2226;DHT22;1119;48.288;8.726;2023-04-25T08:15:51;6.20;99.90
2226;DHT22;1119;48.288;8.726;2023-04-25T08:18:39;6.10;99.90
2226;DHT22;1119;48.288;8.726;2023-04-25T08:21:29;6.00;99.90
2226;DHT22;1119;48.288;8.726;2023-04-25T08:24:20;5.80;99.90
2226;DHT22;1119;48.288;8.726;2023-04-25T08:27:08;5.80;99.90
2226;DHT22;1119;48.288;8.726;2023-04-25T08:29:56;5.80;99.90
2226;DHT22;1119;48.288;8.726;2023-04-25T08:32:44;5.80;99.90
2226;DHT22;1119;48.288;8.726;2023-04-25T08:35:45;5.90;99.90
2226;DHT22;1119;48.288;8.726;2023-04-25T08:38:35;5.90;99.90
2226;DHT22;1119;48.288;8.726;2023-04-25T08:41:26;5.90;99.90
2226;DHT22;1119;48.288;8.726;2023-04-25T08:44:15;6.00;99.90
2226;DHT22;1119;48.288;8.726;2023-04-25T08:47:04;6.00;99.90
2226;DHT22;1119;48.288;8.726;2023-04-25T08:49:59;5.90;99.90
2226;DHT22;1119;48.288;8.726;2023-04-25T08:52:50;5.90;99.90
2226;DHT22;1119;48.288;8.726;2023-04-25T08:55:42;5.90;99.90
2226;DHT22;1119;48.288;8.726;2023-04-25T08:58:30;5.80;99.90
2226;DHT22;1119;48.288;8.726;2023-04-25T09:01:19;5.70;99.90
2226;DHT22;1119;48.288;8.726;2023-04-25T09:04:12;5.60;99.90
2226;DHT22;1119;48.288;8.726;2023-04-25T09:07:00;5.60;99.90
2226;DHT22;1119;48.288;8.726;2023-04-25T09:09:48;5.60;99.90
2226;DHT22;1119;48.288;8.726;2023-04-25T09:12:40;5.30;99.90
2226;DHT22;1119;48.288;8.726;2023-04-25T09:15:29;5.10;99.90
2226;DHT22;1119;48.288;8.726;2023-04-25T09:18:43;5.00;99.90
2226;DHT22;1119;48.288;8.726;2023-04-25T09:21:31;4.90;99.90
2226;DHT22;1119;48.288;8.726;2023-04-25T09:24:30;4.80;99.90
2226;DHT22;1119;48.288;8.726;2023-04-25T09:27:20;4.90;99.90
2226;DHT22;1119;48.288;8.726;2023-04-25T09:30:15;5.00;99.90
2226;DHT22;1119;48.288;8.726;2023-04-25T09:33:29;5.20;99.90
2226;DHT22;1119;48.288;8.726;2023-04-25T09:36:26;5.30;99.90
2226;DHT22;1119;48.288;8.726;2023-04-25T09:39:33;5.40;99.90
2226;DHT22;1119;48.288;8.726;2023-04-25T09:42:32;5.50;99.90
2226;DHT22;1119;48.288;8.726;2023-04-25T09:45:22;5.50;99.90
2226;DHT22;1119;48.288;8.726;2023-04-25T09:48:09;5.60;99.90
2226;DHT22;1119;48.288;8.726;2023-04-25T09:51:07;5.70;99.90
2226;DHT22;1119;48.288;8.726;2023-04-25T09:53:56;5.70;99.90
2226;DHT22;1119;48.288;8.726;2023-04-25T09:57:11;5.80;99.90
2226;DHT22;1119;48.288;8.726;2023-04-25T10:00:01;6.00;99.90
2226;DHT22;1119;48.288;8.726;2023-04-25T10:03:02;6.10;99.90
2226;DHT22;1119;48.288;8.726;2023-04-25T10:06:13;6.20;99.90
2226;DHT22;1119;48.288;8.726;2023-04-25T10:09:05;6.20;99.90
2226;DHT22;1119;48.288;8.726;2023-04-25T10:11:55;6.30;99.90
2226;DHT22;1119;48.288;8.726;2023-04-25T10:14:44;6.50;99.90
2226;DHT22;1119;48.288;8.726;2023-04-25T10:17:34;6.60;99.90
2226;DHT22;1119;48.288;8.726;2023-04-25T10:20:23;6.80;99.90
2226;DHT22;1119;48.288;8.726;2023-04-25T10:23:15;7.00;99.90
2226;DHT22;1119;48.288;8.726;2023-04-25T10:26:03;7.30;99.90
2226;DHT22;1119;48.288;8.726;2023-04-25T10:28:57;7.50;99.90
2226;DHT22;1119;48.288;8.726;2023-04-25T10:31:47;7.70;99.90
2226;DHT22;1119;48.288;8.726;2023-04-25T10:34:39;7.80;99.90
2226;DHT22;1119;48.288;8.726;2023-04-25T10:37:30;7.90;99.90
2226;DHT22;1119;48.288;8.726;2023-04-25T10:40:22;7.80;99.90
2226;DHT22;1119;48.288;8.726;2023-04-25T10:43:38;7.70;99.90
2226;DHT22;1119;48.288;8.726;2023-04-25T10:46:28;7.80;99.90
2226;DHT22;1119;48.288;8.726;2023-04-25T10:49:31;7.80;99.90
2226;DHT22;1119;48.288;8.726;2023-04-25T10:52:25;7.80;99.90
2226;DHT22;1119;48.288;8.726;2023-04-25T10:55:15;7.80;99.90
2226;DHT22;1119;48.288;8.726;2023-04-25T10:58:03;7.70;99.90
2226;DHT22;1119;48.288;8.726;2023-04-25T11:00:51;7.70;99.90
2226;DHT22;1119;48.288;8.726;2023-04-25T11:03:40;7.80;99.90
2226;DHT22;1119;48.288;8.726;2023-04-25T11:06:37;7.90;99.90
2226;DHT22;1119;48.288;8.726;2023-04-25T11:09:33;7.90;99.90
2226;DHT22;1119;48.288;8.726;2023-04-25T11:12:24;8.00;99.90
2226;DHT22;1119;48.288;8.726;2023-04-25T11:15:12;8.10;99.90
2226;DHT22;1119;48.288;8.726;2023-04-25T11:18:00;8.30;99.90
2226;DHT22;1119;48.288;8.726;2023-04-25T11:20:48;8.50;99.90
2226;DHT22;1119;48.288;8.726;2023-04-25T11:23:36;8.60;99.90
2226;DHT22;1119;48.288;8.726;2023-04-25T11:26:25;8.80;99.90
2226;DHT22;1119;48.288;8.726;2023-04-25T11:29:14;8.90;99.90
2226;DHT22;1119;48.288;8.726;2023-04-25T11:32:02;9.10;99.90
2226;DHT22;1119;48.288;8.726;2023-04-25T11:34:52;9.30;99.90
2226;DHT22;1119;48.288;8.726;2023-04-25T11:37:41;9.50;99.90
2226;DHT22;1119;48.288;8.726;2023-04-25T11:40:30;9.60;99.90
2226;DHT22;1119;48.288;8.726;2023-04-25T11:43:19;9.70;99.90
2226;DHT22;1119;48.288;8.726;2023-04-25T11:46:09;9.70;99.90
2226;DHT22;1119;48.288;8.726;2023-04-25T11:48:57;9.60;99.90
2226;DHT22;1119;48.288;8.726;2023-04-25T11:51:47;9.40;99.90
2226;DHT22;1119;48.288;8.726;2023-04-25T11:54:36;9.20;99.90
2226;DHT22;1119;48.288;8.726;2023-04-25T11:57:24;9.10;99.90
2226;DHT22;1119;48.288;8.726;2023-04-25T12:00:14;8.90;99.90
2226;DHT22;1119;48.288;8.726;2023-04-25T12:03:09;8.80;99.90
2226;DHT22;1119;48.288;8.726;2023-04-25T12:06:02;8.70;99.90
2226;DHT22;1119;48.288;8.726;2023-04-25T12:09:02;8.90;99.90
2226;DHT22;1119;48.288;8.726;2023-04-25T12:11:53;9.20;99.90
2226;DHT22;1119;48.288;8.726;2023-04-25T12:14:46;9.50;99.90
2226;DHT22;1119;48.288;8.726;2023-04-25T12:17:35;9.70;99.90
2226;DHT22;1119;48.288;8.726;2023-04-25T12:20:25;9.80;99.90
2226;DHT22;1119;48.288;8.726;2023-04-25T12:23:13;9.90;99.90
2226;DHT22;1119;48.288;8.726;2023-04-25T12:26:00;9.90;99.90
2226;DHT22;1119;48.288;8.726;2023-04-25T12:28:49;9.80;99.90
2226;DHT22;1119;48.288;8.726;2023-04-25T12:31:36;9.80;99.90
2226;DHT22;1119;48.288;8.726;2023-04-25T12:34:24;10.00;99.90
2226;DHT22;1119;48.288;8.726;2023-04-25T12:37:13;9.90;99.90
2226;DHT22;1119;48.288;8.726;2023-04-25T12:40:01;9.90;99.90
2226;DHT22;1119;48.288;8.726;2023-04-25T12:42:50;10.10;99.90
2226;DHT22;1119;48.288;8.726;2023-04-25T12:45:38;10.20;99.90
2226;DHT22;1119;48.288;8.726;2023-04-25T12:48:26;10.20;99.90
2226;DHT22;1119;48.288;8.726;2023-04-25T12:51:13;10.10;99.90
2226;DHT22;1119;48.288;8.726;2023-04-25T12:54:05;9.90;99.90
2226;DHT22;1119;48.288;8.726;2023-04-25T12:56:53;9.90;99.90
2226;DHT22;1119;48.288;8.726;2023-04-25T12:59:41;9.90;99.90
2226;DHT22;1119;48.288;8.726;2023-04-25T13:02:28;9.80;99.90
2226;DHT22;1119;48.288;8.726;2023-04-25T13:05:16;9.80;99.90
2226;DHT22;1119;48.288;8.726;2023-04-25T13:08:04;9.90;99.90
2226;DHT22;1119;48.288;8.726;2023-04-25T13:10:53;10.00;99.90
2226;DHT22;1119;48.288;8.726;2023-04-25T13:13:41;10.10;99.90
2226;DHT22;1119;48.288;8.726;2023-04-25T13:16:29;10.20;99.90
2226;DHT22;1119;48.288;8.726;2023-04-25T13:19:17;10.20;99.80
2226;DHT22;1119;48.288;8.726;2023-04-25T13:22:04;10.30;99.90
2226;DHT22;1119;48.288;8.726;2023-04-25T13:24:52;10.60;99.90
2226;DHT22;1119;48.288;8.726;2023-04-25T13:27:41;10.70;99.90
2226;DHT22;1119;48.288;8.726;2023-04-25T13:30:30;10.90;99.30
2226;DHT22;1119;48.288;8.726;2023-04-25T13:33:18;10.90;98.70
2226;DHT22;1119;48.288;8.726;2023-04-25T13:36:06;11.00;98.90
2226;DHT22;1119;48.288;8.726;2023-04-25T13:38:54;11.20;99.80
2226;DHT22;1119;48.288;8.726;2023-04-25T13:41:41;11.40;99.30
2226;DHT22;1119;48.288;8.726;2023-04-25T13:44:30;11.50;99.30
2226;DHT22;1119;48.288;8.726;2023-04-25T13:47:18;11.70;98.00
2226;DHT22;1119;48.288;8.726;2023-04-25T13:50:07;12.10;98.30
2226;DHT22;1119;48.288;8.726;2023-04-25T13:52:55;11.90;98.50
2226;DHT22;1119;48.288;8.726;2023-04-25T13:55:43;11.80;97.70
2226;DHT22;1119;48.288;8.726;2023-04-25T13:58:31;11.20;98.30
2226;DHT22;1119;48.288;8.726;2023-04-25T14:01:20;9.90;99.90
2226;DHT22;1119;48.288;8.726;2023-04-25T14:04:08;8.90;99.90
2226;DHT22;1119;48.288;8.726;2023-04-25T14:06:56;8.20;99.90
2226;DHT22;1119;48.288;8.726;2023-04-25T14:09:43;7.80;99.90
2226;DHT22;1119;48.288;8.726;2023-04-25T14:12:31;7.50;99.90
2226;DHT22;1119;48.288;8.726;2023-04-25T14:15:19;7.30;99.90
2226;DHT22;1119;48.288;8.726;2023-04-25T14:18:09;7.20;99.90
2226;DHT22;1119;48.288;8.726;2023-04-25T14:20:56;7.10;99.90
2226;DHT22;1119;48.288;8.726;2023-04-25T14:23:44;7.00;99.90
2226;DHT22;1119;48.288;8.726;2023-04-25T14:26:33;7.10;99.90
2226;DHT22;1119;48.288;8.726;2023-04-25T14:29:21;7.10;99.90
2226;DHT22;1119;48.288;8.726;2023-04-25T14:32:09;7.20;99.90
2226;DHT22;1119;48.288;8.726;2023-04-25T14:34:58;7.40;99.90
2226;DHT22;1119;48.288;8.726;2023-04-25T14:37:45;7.60;99.90
2226;DHT22;1119;48.288;8.726;2023-04-25T14:40:33;7.70;99.90
2226;DHT22;1119;48.288;8.726;2023-04-25T14:43:21;7.80;99.90
2226;DHT22;1119;48.288;8.726;2023-04-25T14:46:10;7.90;99.90
2226;DHT22;1119;48.288;8.726;2023-04-25T14:48:58;8.00;99.90
2226;DHT22;1119;48.288;8.726;2023-04-25T14:51:47;8.20;99.90
2226;DHT22;1119;48.288;8.726;2023-04-25T14:54:35;8.20;99.90
2226;DHT22;1119;48.288;8.726;2023-04-25T14:57:23;8.20;99.90
2226;DHT22;1119;48.288;8.726;2023-04-25T15:00:11;8.20;99.90
2226;DHT22;1119;48.288;8.726;2023-04-25T15:03:03;8.20;99.90
2226;DHT22;1119;48.288;8.726;2023-04-25T15:05:53;8.20;99.90
2226;DHT22;1119;48.288;8.726;2023-04-25T15:08:43;8.00;99.90
2226;DHT22;1119;48.288;8.726;2023-04-25T15:11:31;7.80;99.90
2226;DHT22;1119;48.288;8.726;2023-04-25T15:14:19;7.60;99.90
2226;DHT22;1119;48.288;8.726;2023-04-25T15:17:07;7.50;99.90
2226;DHT22;1119;48.288;8.726;2023-04-25T15:19:54;7.30;99.90
2226;DHT22;1119;48.288;8.726;2023-04-25T15:22:43;7.30;99.90
2226;DHT22;1119;48.288;8.726;2023-04-25T15:25:33;7.30;99.90
2226;DHT22;1119;48.288;8.726;2023-04-25T15:28:21;7.40;99.90
2226;DHT22;1119;48.288;8.726;2023-04-25T15:31:08;7.30;99.90
2226;DHT22;1119;48.288;8.726;2023-04-25T15:33:56;7.50;99.90
2226;DHT22;1119;48.288;8.726;2023-04-25T15:36:44;7.50;99.90
2226;DHT22;1119;48.288;8.726;2023-04-25T15:39:31;7.60;99.90
2226;DHT22;1119;48.288;8.726;2023-04-25T15:42:20;7.70;99.90
2226;DHT22;1119;48.288;8.726;2023-04-25T15:49:36;8.10;99.90
2226;DHT22;1119;48.288;8.726;2023-04-25T15:52:23;8.30;99.90
2226;DHT22;1119;48.288;8.726;2023-04-25T15:55:13;8.50;99.90
2226;DHT22;1119;48.288;8.726;2023-04-25T15:58:04;8.60;99.90
2226;DHT22;1119;48.288;8.726;2023-04-25T16:00:51;8.70;99.90
2226;DHT22;1119;48.288;8.726;2023-04-25T16:03:40;8.60;99.90
2226;DHT22;1119;48.288;8.726;2023-04-25T16:06:28;8.70;99.90
2226;DHT22;1119;48.288;8.726;2023-04-25T16:09:16;8.50;99.90
2226;DHT22;1119;48.288;8.726;2023-04-25T16:12:05;8.70;99.90
2226;DHT22;1119;48.288;8.726;2023-04-25T16:14:54;8.80;99.90
2226;DHT22;1119;48.288;8.726;2023-04-25T16:17:43;8.90;99.90
2226;DHT22;1119;48.288;8.726;2023-04-25T16:20:31;9.10;99.90
2226;DHT22;1119;48.288;8.726;2023-04-25T16:23:18;9.30;99.90
2226;DHT22;1119;48.288;8.726;2023-04-25T16:26:06;9.30;99.90
2226;DHT22;1119;48.288;8.726;2023-04-25T16:28:54;9.20;99.90
2226;DHT22;1119;48.288;8.726;2023-04-25T16:31:43;9.20;99.90
2226;DHT22;1119;48.288;8.726;2023-04-25T16:34:32;9.20;99.90
2226;DHT22;1119;48.288;8.726;2023-04-25T16:37:20;9.00;99.90
2226;DHT22;1119;48.288;8.726;2023-04-25T16:40:08;9.10;99.90
2226;DHT22;1119;48.288;8.726;2023-04-25T16:42:56;9.10;99.90
2226;DHT22;1119;48.288;8.726;2023-04-25T16:45:44;9.20;99.90
2226;DHT22;1119;48.288;8.726;2023-04-25T16:48:33;9.20;99.90
2226;DHT22;1119;48.288;8.726;2023-04-25T16:51:21;9.30;99.90
2226;DHT22;1119;48.288;8.726;2023-04-25T16:54:09;9.30;99.90
2226;DHT22;1119;48.288;8.726;2023-04-25T16:56:56;9.30;99.90
2226;DHT22;1119;48.288;8.726;2023-04-25T16:59:44;9.20;99.90
2226;DHT22;1119;48.288;8.726;2023-04-25T17:02:32;9.20;99.90
2226;DHT22;1119;48.288;8.726;2023-04-25T17:05:21;9.20;99.90
2226;DHT22;1119;48.288;8.726;2023-04-25T17:08:10;9.20;99.90
2226;DHT22;1119;48.288;8.726;2023-04-25T17:10:58;9.10;99.90
2226;DHT22;1119;48.288;8.726;2023-04-25T17:13:46;9.10;99.90
2226;DHT22;1119;48.288;8.726;2023-04-25T17:16:34;9.30;99.90
2226;DHT22;1119;48.288;8.726;2023-04-25T17:19:22;8.90;99.90
2226;DHT22;1119;48.288;8.726;2023-04-25T17:22:12;9.00;99.90
2226;DHT22;1119;48.288;8.726;2023-04-25T17:25:00;9.00;99.90
2226;DHT22;1119;48.288;8.726;2023-04-25T17:27:47;8.90;99.90
2226;DHT22;1119;48.288;8.726;2023-04-25T17:33:37;8.90;99.90
2226;DHT22;1119;48.288;8.726;2023-04-25T17:36:24;8.80;99.90
2226;DHT22;1119;48.288;8.726;2023-04-25T17:39:14;8.80;99.90
2226;DHT22;1119;48.288;8.726;2023-04-25T17:42:02;8.80;99.90
2226;DHT22;1119;48.288;8.726;2023-04-25T17:44:50;8.90;99.90
2226;DHT22;1119;48.288;8.726;2023-04-25T17:47:39;8.60;99.90
2226;DHT22;1119;48.288;8.726;2023-04-25T17:50:27;8.60;99.90
2226;DHT22;1119;48.288;8.726;2023-04-25T17:53:14;8.70;99.90
2226;DHT22;1119;48.288;8.726;2023-04-25T17:56:04;8.70;99.90
2226;DHT22;1119;48.288;8.726;2023-04-25T17:58:52;8.60;99.90
2226;DHT22;1119;48.288;8.726;2023-04-25T18:01:40;8.60;99.90
2226;DHT22;1119;48.288;8.726;2023-04-25T18:04:28;8.60;99.90
2226;DHT22;1119;48.288;8.726;2023-04-25T18:07:15;8.60;99.90
2226;DHT22;1119;48.288;8.726;2023-04-25T18:10:04;8.50;99.90
2226;DHT22;1119;48.288;8.726;2023-04-25T18:12:54;8.30;99.90
2226;DHT22;1119;48.288;8.726;2023-04-25T18:15:42;8.60;99.90
2226;DHT22;1119;48.288;8.726;2023-04-25T18:18:30;8.80;99.90
2226;DHT22;1119;48.288;8.726;2023-04-25T18:21:20;8.70;99.90
2226;DHT22;1119;48.288;8.726;2023-04-25T18:24:08;8.80;99.90
2226;DHT22;1119;48.288;8.726;2023-04-25T18:26:57;8.80;99.90
2226;DHT22;1119;48.288;8.726;2023-04-25T18:29:47;8.80;99.90
2226;DHT22;1119;48.288;8.726;2023-04-25T18:32:35;9.00;99.90
2226;DHT22;1119;48.288;8.726;2023-04-25T18:35:23;8.90;99.90
2226;DHT22;1119;48.288;8.726;2023-04-25T18:38:12;9.20;99.90
2226;DHT22;1119;48.288;8.726;2023-04-25T18:41:00;8.90;99.90
2226;DHT22;1119;48.288;8.726;2023-04-25T18:43:47;9.00;99.90
2226;DHT22;1119;48.288;8.726;2023-04-25T18:46:36;9.20;99.90
2226;DHT22;1119;48.288;8.726;2023-04-25T18:49:26;9.00;99.90
2226;DHT22;1119;48.288;8.726;2023-04-25T18:52:13;9.00;99.90
2226;DHT22;1119;48.288;8.726;2023-04-25T18:55:01;8.90;99.90
2226;DHT22;1119;48.288;8.726;2023-04-25T18:57:49;8.90;99.90
2226;DHT22;1119;48.288;8.726;2023-04-25T19:00:37;8.80;99.90
2226;DHT22;1119;48.288;8.726;2023-04-25T19:03:26;8.70;99.90
2226;DHT22;1119;48.288;8.726;2023-04-25T19:06:14;8.70;99.90